createdAt,value
2022-10-06T00:00:23.013Z,0.00
2022-10-06T00:01:24.375Z,0.00
2022-10-06T00:02:23.893Z,0.00
2022-10-06T00:03:26.713Z,0.00
2022-10-06T00:04:27.565Z,0.00
2022-10-06T00:05:24.406Z,0.00
2022-10-06T00:06:27.646Z,0.00
2022-10-06T00:07:25.889Z,0.00
2022-10-06T00:08:26.678Z,0.00
2022-10-06T00:09:29.081Z,0.00
2022-10-06T00:10:25.897Z,0.00
2022-10-06T00:11:27.213Z,0.00
2022-10-06T00:12:27.433Z,0.00
2022-10-06T00:13:28.657Z,0.00
2022-10-06T00:14:29.164Z,0.00
2022-10-06T00:15:28.203Z,0.00
2022-10-06T00:16:28.670Z,0.00
2022-10-06T00:17:27.971Z,0.00
2022-10-06T00:18:28.617Z,0.00
2022-10-06T00:19:29.346Z,0.00
2022-10-06T00:20:30.795Z,0.00
2022-10-06T00:21:31.722Z,0.00
2022-10-06T00:22:29.499Z,0.00
2022-10-06T00:23:32.680Z,0.00
2022-10-06T00:24:30.889Z,0.00
2022-10-06T00:25:32.345Z,0.00
2022-10-06T00:26:30.719Z,0.00
2022-10-06T00:27:30.941Z,0.00
2022-10-06T00:28:31.824Z,0.00
2022-10-06T00:29:33.438Z,0.00
2022-10-06T00:30:33.595Z,0.00
2022-10-06T00:31:34.154Z,0.00
2022-10-06T00:32:32.368Z,0.00
2022-10-06T00:33:32.744Z,0.00
2022-10-06T00:34:33.775Z,0.00
2022-10-06T00:35:35.289Z,0.00
2022-10-06T00:36:33.594Z,0.00
2022-10-06T00:37:34.727Z,0.00
2022-10-06T00:38:35.968Z,0.00
2022-10-06T00:39:34.359Z,0.00
2022-10-06T00:40:36.506Z,0.00
2022-10-06T00:41:35.910Z,0.00
2022-10-06T00:42:36.073Z,0.00
2022-10-06T00:43:37.396Z,0.00
2022-10-06T00:44:35.847Z,0.00
2022-10-06T00:45:36.034Z,0.00
2022-10-06T00:46:37.396Z,0.00
2022-10-06T00:47:38.563Z,0.00
2022-10-06T00:48:37.756Z,0.00
2022-10-06T00:49:38.949Z,0.00
2022-10-06T00:50:39.133Z,0.00
2022-10-06T00:51:40.818Z,0.00
2022-10-06T00:52:38.234Z,0.00
2022-10-06T00:53:39.429Z,0.00
2022-10-06T00:54:38.805Z,0.00
2022-10-06T00:55:39.108Z,0.00
2022-10-06T00:56:42.270Z,0.00
2022-10-06T00:57:41.570Z,0.00
2022-10-06T00:58:41.739Z,0.00
2022-10-06T00:59:41.918Z,0.00
2022-10-06T01:00:40.552Z,0.00
2022-10-06T01:01:41.733Z,0.00
2022-10-06T01:02:43.087Z,0.00
2022-10-06T01:03:43.280Z,0.00
2022-10-06T01:04:41.797Z,0.00
2022-10-06T01:05:42.187Z,0.00
2022-10-06T01:06:42.504Z,0.00
2022-10-06T01:07:43.643Z,0.00
2022-10-06T01:08:44.832Z,0.00
2022-10-06T01:09:43.338Z,0.00
2022-10-06T01:10:43.658Z,0.00
2022-10-06T01:11:46.471Z,0.00
2022-10-06T01:12:44.248Z,0.00
2022-10-06T01:13:44.559Z,0.00
2022-10-06T01:14:46.744Z,0.00
2022-10-06T01:15:45.252Z,0.00
2022-10-06T01:16:48.314Z,0.00
2022-10-06T01:17:47.548Z,0.00
2022-10-06T01:18:47.781Z,0.00
2022-10-06T01:19:46.410Z,0.00
2022-10-06T01:20:46.737Z,0.00
2022-10-06T01:21:49.887Z,0.00
2022-10-06T01:22:47.294Z,0.00
2022-10-06T01:23:49.471Z,0.00
2022-10-06T01:24:49.665Z,0.00
2022-10-06T01:25:48.180Z,0.00
2022-10-06T01:26:51.357Z,0.00
2022-10-06T01:27:48.814Z,0.00
2022-10-06T01:28:49.096Z,0.00
2022-10-06T01:29:51.183Z,0.00
2022-10-06T01:30:51.413Z,0.00
2022-10-06T01:31:52.358Z,0.00
2022-10-06T01:32:50.136Z,0.00
2022-10-06T01:33:52.316Z,0.00
2022-10-06T01:34:50.700Z,0.00
2022-10-06T01:35:51.022Z,0.00
2022-10-06T01:36:54.804Z,0.00
2022-10-06T01:37:51.592Z,0.00
2022-10-06T01:38:51.916Z,0.00
2022-10-06T01:39:52.227Z,0.00
2022-10-06T01:40:54.416Z,0.00
2022-10-06T01:41:53.701Z,0.00
2022-10-06T01:42:53.077Z,0.00
2022-10-06T01:43:55.255Z,0.00
2022-10-06T01:44:55.456Z,0.00
2022-10-06T01:45:53.973Z,0.00
2022-10-06T01:46:55.756Z,0.00
2022-10-06T01:47:56.485Z,0.00
2022-10-06T01:48:56.671Z,0.00
2022-10-06T01:49:55.174Z,0.00
2022-10-06T01:50:55.486Z,0.00
2022-10-06T01:51:58.286Z,0.00
2022-10-06T01:52:58.043Z,0.00
2022-10-06T01:53:58.221Z,0.00
2022-10-06T01:54:56.616Z,0.00
2022-10-06T01:55:56.948Z,0.00
2022-10-06T01:57:00.611Z,0.00
2022-10-06T01:57:59.318Z,0.00
2022-10-06T01:58:59.505Z,0.00
2022-10-06T01:59:58.136Z,0.00
2022-10-06T02:00:58.446Z,0.00
2022-10-06T02:02:01.309Z,0.00
2022-10-06T02:03:00.967Z,0.00
2022-10-06T02:04:02.628Z,0.00
2022-10-06T02:05:01.337Z,0.00
2022-10-06T02:06:01.571Z,0.00
2022-10-06T02:07:00.287Z,0.00
2022-10-06T02:08:01.414Z,0.00
2022-10-06T02:09:03.521Z,0.00
2022-10-06T02:10:02.002Z,0.00
2022-10-06T02:11:02.183Z,0.00
2022-10-06T02:12:04.522Z,0.00
2022-10-06T02:13:02.759Z,0.00
2022-10-06T02:14:04.114Z,0.00
2022-10-06T02:15:04.298Z,0.00
2022-10-06T02:16:03.818Z,0.00
2022-10-06T02:17:04.168Z,0.00
2022-10-06T02:18:04.333Z,0.00
2022-10-06T02:19:05.667Z,0.00
2022-10-06T02:20:03.930Z,0.00
2022-10-06T02:21:07.599Z,0.00
2022-10-06T02:22:07.273Z,0.00
2022-10-06T02:23:05.637Z,0.00
2022-10-06T02:24:06.054Z,0.00
2022-10-06T02:25:07.326Z,0.00
2022-10-06T02:26:06.643Z,0.00
2022-10-06T02:27:08.835Z,0.00
2022-10-06T02:28:07.308Z,0.00
2022-10-06T02:29:07.373Z,0.00
2022-10-06T02:30:08.718Z,0.00
2022-10-06T02:31:08.026Z,0.00
2022-10-06T02:32:07.462Z,0.00
2022-10-06T02:33:07.654Z,0.00
2022-10-06T02:34:07.964Z,0.00
2022-10-06T02:35:09.156Z,0.00
2022-10-06T02:36:08.556Z,0.00
2022-10-06T02:37:12.175Z,0.00
2022-10-06T02:38:09.220Z,0.00
2022-10-06T02:39:11.386Z,0.00
2022-10-06T02:40:11.702Z,0.00
2022-10-06T02:41:11.876Z,0.00
2022-10-06T02:42:12.023Z,0.00
2022-10-06T02:43:10.661Z,0.00
2022-10-06T02:44:12.841Z,0.00
2022-10-06T02:45:13.035Z,0.00
2022-10-06T02:46:11.562Z,0.00
2022-10-06T02:47:12.201Z,0.00
2022-10-06T02:48:12.175Z,0.00
2022-10-06T02:49:12.489Z,0.00
2022-10-06T02:50:14.714Z,0.00
2022-10-06T02:51:13.095Z,0.00
2022-10-06T02:52:15.259Z,0.00
2022-10-06T02:53:15.435Z,0.00
2022-10-06T02:54:15.627Z,0.00
2022-10-06T02:55:15.807Z,0.00
2022-10-06T02:56:16.496Z,0.00
2022-10-06T02:57:16.679Z,0.00
2022-10-06T02:58:16.860Z,0.00
2022-10-06T02:59:17.057Z,0.00
2022-10-06T03:00:17.761Z,0.00
2022-10-06T03:01:16.254Z,0.00
2022-10-06T03:02:18.448Z,0.00
2022-10-06T03:03:16.699Z,0.00
2022-10-06T03:04:18.874Z,0.00
2022-10-06T03:05:19.136Z,0.00
2022-10-06T03:06:17.520Z,0.00
2022-10-06T03:07:19.708Z,0.00
2022-10-06T03:08:18.097Z,0.00
2022-10-06T03:09:18.414Z,0.00
2022-10-06T03:10:20.591Z,0.00
2022-10-06T03:11:19.936Z,0.00
2022-10-06T03:12:21.183Z,0.00
2022-10-06T03:13:19.576Z,0.00
2022-10-06T03:14:22.131Z,0.00
2022-10-06T03:15:20.142Z,0.00
2022-10-06T03:16:23.831Z,0.00
2022-10-06T03:17:22.092Z,0.00
2022-10-06T03:18:21.092Z,0.00
2022-10-06T03:19:21.408Z,0.00
2022-10-06T03:20:21.717Z,0.00
2022-10-06T03:21:24.933Z,0.00
2022-10-06T03:22:24.159Z,0.00
2022-10-06T03:23:24.360Z,0.00
2022-10-06T03:24:23.002Z,0.00
2022-10-06T03:25:23.310Z,0.00
2022-10-06T03:26:24.423Z,0.00
2022-10-06T03:27:25.825Z,0.00
2022-10-06T03:28:24.286Z,0.00
2022-10-06T03:29:24.440Z,0.00
2022-10-06T03:30:24.751Z,0.00
2022-10-06T03:31:29.549Z,0.00
2022-10-06T03:32:27.171Z,0.00
2022-10-06T03:33:25.548Z,0.00
2022-10-06T03:34:27.705Z,0.00
2022-10-06T03:35:26.190Z,0.00
2022-10-06T03:36:27.301Z,0.00
2022-10-06T03:37:28.712Z,0.00
2022-10-06T03:38:27.516Z,0.00
2022-10-06T03:39:27.433Z,0.00
2022-10-06T03:40:27.746Z,0.00
2022-10-06T03:41:29.104Z,0.00
2022-10-06T03:42:30.274Z,0.00
2022-10-06T03:43:28.661Z,0.00
2022-10-06T03:44:30.841Z,0.00
2022-10-06T03:45:31.054Z,0.00
2022-10-06T03:46:29.643Z,0.00
2022-10-06T03:47:32.725Z,0.00
2022-10-06T03:48:30.509Z,0.00
2022-10-06T03:49:33.270Z,0.00
2022-10-06T03:50:30.673Z,0.00
2022-10-06T03:51:32.778Z,0.00
2022-10-06T03:52:32.164Z,0.00
2022-10-06T03:54:49.341Z,0.00
2022-10-06T03:55:49.544Z,0.00
2022-10-06T03:56:49.972Z,0.00
2022-10-06T03:57:49.339Z,0.00
2022-10-06T03:58:51.527Z,0.00
2022-10-06T03:59:50.958Z,0.00
2022-10-06T04:00:51.158Z,0.00
2022-10-06T04:01:51.565Z,0.00
2022-10-06T04:02:51.685Z,0.00
2022-10-06T04:03:54.046Z,0.00
2022-10-06T04:04:53.286Z,0.00
2022-10-06T04:05:52.634Z,0.00
2022-10-06T04:06:52.839Z,0.00
2022-10-06T04:07:54.191Z,0.00
2022-10-06T04:08:55.376Z,0.00
2022-10-06T04:09:52.905Z,0.00
2022-10-06T04:10:53.426Z,0.00
2022-10-06T04:11:53.444Z,0.00
2022-10-06T04:12:53.760Z,0.00
2022-10-06T04:13:54.983Z,0.00
2022-10-06T04:14:59.942Z,0.00
2022-10-06T04:15:54.650Z,0.00
2022-10-06T04:16:54.921Z,0.00
2022-10-06T04:17:55.243Z,0.00
2022-10-06T04:18:56.553Z,0.00
2022-10-06T04:19:57.807Z,0.00
2022-10-06T04:20:56.056Z,0.00
2022-10-06T04:21:57.389Z,0.00
2022-10-06T04:22:57.582Z,0.00
2022-10-06T04:23:59.807Z,0.00
2022-10-06T04:24:58.061Z,0.00
2022-10-06T04:25:57.560Z,0.00
2022-10-06T04:26:58.904Z,0.00
2022-10-06T04:27:58.202Z,0.00
2022-10-06T04:29:00.348Z,0.00
2022-10-06T04:29:58.750Z,0.00
2022-10-06T04:31:00.927Z,0.00
2022-10-06T04:32:02.159Z,0.00
2022-10-06T04:32:59.620Z,0.00
2022-10-06T04:34:01.802Z,0.00
2022-10-06T04:35:01.969Z,0.00
2022-10-06T04:36:02.163Z,0.00
2022-10-06T04:37:03.328Z,0.00
2022-10-06T04:38:01.109Z,0.00
2022-10-06T04:39:03.289Z,0.00
2022-10-06T04:40:01.677Z,0.00
2022-10-06T04:41:03.862Z,0.00
2022-10-06T04:42:04.843Z,0.00
2022-10-06T04:43:04.260Z,0.00
2022-10-06T04:44:02.773Z,0.00
2022-10-06T04:45:04.954Z,0.00
2022-10-06T04:46:18.128Z,0.00
2022-10-06T04:47:07.508Z,0.00
2022-10-06T04:48:05.741Z,0.00
2022-10-06T04:49:04.245Z,0.00
2022-10-06T04:50:04.558Z,0.00
2022-10-06T04:51:04.862Z,0.00
2022-10-06T04:52:08.027Z,0.00
2022-10-06T04:53:06.272Z,0.00
2022-10-06T04:54:05.761Z,0.00
2022-10-06T04:55:06.917Z,0.00
2022-10-06T04:56:06.412Z,0.00
2022-10-06T04:57:10.110Z,4.00
2022-10-06T04:58:09.822Z,4.00
2022-10-06T04:59:09.056Z,0.00
2022-10-06T05:00:13.923Z,0.00
2022-10-06T05:01:09.963Z,4.00
2022-10-06T05:02:08.362Z,4.00
2022-10-06T05:03:11.971Z,4.00
2022-10-06T05:04:10.675Z,8.00
2022-10-06T05:05:10.858Z,8.00
2022-10-06T05:06:11.039Z,12.00
2022-10-06T05:07:09.794Z,12.00
2022-10-06T05:08:12.101Z,12.00
2022-10-06T05:09:11.206Z,16.00
2022-10-06T05:10:12.566Z,16.00
2022-10-06T05:11:15.062Z,20.00
2022-10-06T05:12:12.293Z,24.00
2022-10-06T05:13:13.483Z,28.00
2022-10-06T05:14:11.875Z,36.00
2022-10-06T05:15:12.194Z,40.00
2022-10-06T05:16:12.589Z,48.00
2022-10-06T05:17:12.867Z,56.00
2022-10-06T05:18:15.039Z,64.00
2022-10-06T05:19:15.221Z,76.00
2022-10-06T05:20:13.740Z,88.00
2022-10-06T05:21:15.926Z,100.00
2022-10-06T05:22:14.326Z,120.00
2022-10-06T05:23:14.742Z,132.00
2022-10-06T05:24:14.980Z,152.00
2022-10-06T05:25:15.197Z,176.00
2022-10-06T05:26:17.371Z,192.00
2022-10-06T05:27:15.778Z,216.00
2022-10-06T05:28:16.166Z,244.00
2022-10-06T05:29:16.356Z,268.00
2022-10-06T05:30:16.705Z,296.00
2022-10-06T05:31:19.887Z,320.00
2022-10-06T05:32:20.003Z,348.00
2022-10-06T05:33:19.001Z,384.00
2022-10-06T05:34:21.184Z,432.00
2022-10-06T05:35:18.097Z,480.00
2022-10-06T05:36:18.447Z,500.00
2022-10-06T05:37:18.780Z,528.00
2022-10-06T05:38:20.974Z,580.00
2022-10-06T05:39:21.155Z,652.00
2022-10-06T05:40:20.523Z,732.00
2022-10-06T05:41:19.912Z,784.00
2022-10-06T05:42:20.250Z,820.00
2022-10-06T05:43:22.440Z,848.00
2022-10-06T05:44:22.612Z,912.00
2022-10-06T05:45:21.149Z,984.00
2022-10-06T05:46:22.258Z,1036.00
2022-10-06T05:47:22.607Z,1064.00
2022-10-06T05:48:23.833Z,1116.00
2022-10-06T05:49:22.984Z,1176.00
2022-10-06T05:50:25.300Z,1240.00
2022-10-06T05:51:27.911Z,1296.00
2022-10-06T05:52:26.907Z,1356.00
2022-10-06T05:53:25.156Z,1408.00
2022-10-06T05:54:23.715Z,1492.00
2022-10-06T05:55:25.916Z,1548.00
2022-10-06T05:56:25.127Z,1592.00
2022-10-06T05:57:24.579Z,1664.00
2022-10-06T05:58:26.757Z,1728.00
2022-10-06T05:59:25.067Z,1796.00
2022-10-06T06:00:25.287Z,1860.00
2022-10-06T06:01:26.623Z,1936.00
2022-10-06T06:02:26.879Z,2020.00
2022-10-06T06:03:28.061Z,2116.00
2022-10-06T06:04:28.238Z,2220.00
2022-10-06T06:05:28.430Z,2320.00
2022-10-06T06:06:28.092Z,2412.00
2022-10-06T06:07:29.256Z,2480.00
2022-10-06T06:08:29.687Z,2552.00
2022-10-06T06:09:30.034Z,2624.00
2022-10-06T06:10:29.900Z,2688.00
2022-10-06T06:11:28.562Z,2740.00
2022-10-06T06:12:30.766Z,2816.00
2022-10-06T06:13:31.892Z,2892.00
2022-10-06T06:14:31.334Z,2960.00
2022-10-06T06:15:31.336Z,3036.00
2022-10-06T06:16:31.584Z,3112.00
2022-10-06T06:17:31.687Z,3180.00
2022-10-06T06:18:32.778Z,3272.00
2022-10-06T06:19:33.541Z,3360.00
2022-10-06T06:20:32.770Z,3420.00
2022-10-06T06:21:32.928Z,3488.00
2022-10-06T06:22:33.115Z,3548.00
2022-10-06T06:23:32.811Z,3568.00
2022-10-06T06:24:35.002Z,3580.00
2022-10-06T06:25:32.561Z,3604.00
2022-10-06T06:26:32.786Z,3652.00
2022-10-06T06:27:35.000Z,3728.00
2022-10-06T06:28:35.233Z,3836.00
2022-10-06T06:29:34.758Z,3924.00
2022-10-06T06:30:35.959Z,3988.00
2022-10-06T06:31:36.166Z,4068.00
2022-10-06T06:32:34.674Z,4116.00
2022-10-06T06:33:36.853Z,4184.00
2022-10-06T06:34:37.993Z,4240.00
2022-10-06T06:35:35.445Z,4300.00
2022-10-06T06:36:36.703Z,4328.00
2022-10-06T06:37:37.903Z,4328.00
2022-10-06T06:38:38.085Z,4324.00
2022-10-06T06:39:38.264Z,4348.00
2022-10-06T06:40:38.949Z,4400.00
2022-10-06T06:41:38.262Z,4456.00
2022-10-06T06:42:37.532Z,4512.00
2022-10-06T06:43:39.810Z,4520.00
2022-10-06T06:44:37.983Z,4572.00
2022-10-06T06:45:39.430Z,4628.00
2022-10-06T06:46:42.030Z,4656.00
2022-10-06T06:47:38.851Z,4696.00
2022-10-06T06:48:39.085Z,4756.00
2022-10-06T06:49:39.313Z,4832.00
2022-10-06T06:50:40.427Z,4872.00
2022-10-06T06:51:41.945Z,4904.00
2022-10-06T06:52:40.116Z,5012.00
2022-10-06T06:53:40.356Z,5032.00
2022-10-06T06:54:40.580Z,5112.00
2022-10-06T06:55:40.915Z,5188.00
2022-10-06T06:56:43.026Z,5300.00
2022-10-06T06:57:41.448Z,5508.00
2022-10-06T06:58:41.677Z,5692.00
2022-10-06T06:59:41.907Z,6088.00
2022-10-06T07:00:42.305Z,6996.00
2022-10-06T07:01:43.475Z,7684.00
2022-10-06T07:02:44.610Z,7784.00
2022-10-06T07:03:57.075Z,8028.00
2022-10-06T07:04:44.153Z,8160.00
2022-10-06T07:05:44.408Z,8080.00
2022-10-06T07:06:45.639Z,8120.00
2022-10-06T07:07:45.819Z,8228.00
2022-10-06T07:08:44.237Z,8228.00
2022-10-06T07:09:46.400Z,8376.00
2022-10-06T07:10:44.894Z,8296.00
2022-10-06T07:11:47.038Z,8204.00
2022-10-06T07:12:45.449Z,7856.00
2022-10-06T07:13:47.640Z,8520.00
2022-10-06T07:14:46.065Z,8588.00
2022-10-06T07:15:49.780Z,8692.00
2022-10-06T07:16:46.692Z,8740.00
2022-10-06T07:17:48.880Z,8748.00
2022-10-06T07:18:49.062Z,8812.00
2022-10-06T07:19:47.494Z,8936.00
2022-10-06T07:20:51.177Z,8932.00
2022-10-06T07:21:47.981Z,9000.00
2022-10-06T07:22:50.168Z,9156.00
2022-10-06T07:23:50.345Z,9084.00
2022-10-06T07:24:49.707Z,8768.00
2022-10-06T07:25:52.436Z,8456.00
2022-10-06T07:26:49.254Z,8344.00
2022-10-06T07:27:51.430Z,8352.00
2022-10-06T07:28:49.859Z,8388.00
2022-10-06T07:29:50.347Z,8452.00
2022-10-06T07:30:53.222Z,8560.00
2022-10-06T07:31:50.664Z,8724.00
2022-10-06T07:32:53.803Z,9128.00
2022-10-06T07:33:51.245Z,10412.00
2022-10-06T07:34:51.750Z,13352.00
2022-10-06T07:35:52.759Z,16240.00
2022-10-06T07:36:52.051Z,16432.00
2022-10-06T07:37:54.242Z,13728.00
2022-10-06T07:38:53.478Z,15564.00
2022-10-06T07:39:55.665Z,12628.00
2022-10-06T07:41:17.906Z,12732.00
2022-10-06T07:41:54.393Z,14808.00
2022-10-06T07:42:53.687Z,14732.00
2022-10-06T07:43:55.866Z,16632.00
2022-10-06T07:44:56.446Z,12620.00
2022-10-06T07:45:57.189Z,9632.00
2022-10-06T07:46:55.528Z,10372.00
2022-10-06T07:47:56.907Z,7588.00
2022-10-06T07:48:55.323Z,7728.00
2022-10-06T07:49:55.674Z,9940.00
2022-10-06T07:50:57.469Z,10144.00
2022-10-06T07:51:56.139Z,10436.00
2022-10-06T07:52:59.748Z,10836.00
2022-10-06T07:53:59.437Z,11040.00
2022-10-06T07:54:57.829Z,8280.00
2022-10-06T07:56:00.157Z,10952.00
2022-10-06T07:56:58.406Z,11544.00
2022-10-06T07:57:58.569Z,12744.00
2022-10-06T07:58:59.923Z,15388.00
2022-10-06T08:00:02.882Z,16356.00
2022-10-06T08:01:00.325Z,21312.00
2022-10-06T08:02:00.699Z,18176.00
2022-10-06T08:02:59.920Z,14120.00
2022-10-06T08:04:01.226Z,13924.00
2022-10-06T08:05:01.399Z,15096.00
2022-10-06T08:06:02.550Z,14432.00
2022-10-06T08:07:01.855Z,12812.00
2022-10-06T08:08:02.467Z,15228.00
2022-10-06T08:09:01.742Z,16060.00
2022-10-06T08:10:02.015Z,16144.00
2022-10-06T08:11:04.734Z,10812.00
2022-10-06T08:12:02.563Z,16512.00
2022-10-06T08:13:03.941Z,17440.00
2022-10-06T08:14:02.123Z,19136.00
2022-10-06T08:15:05.980Z,20992.00
2022-10-06T08:16:07.145Z,22464.00
2022-10-06T08:17:02.967Z,23104.00
2022-10-06T08:18:12.171Z,23072.00
2022-10-06T08:19:04.438Z,23744.00
2022-10-06T08:20:03.955Z,25440.00
2022-10-06T08:21:06.098Z,27008.00
2022-10-06T08:22:07.768Z,14616.00
2022-10-06T08:23:06.395Z,14208.00
2022-10-06T08:24:06.591Z,14132.00
2022-10-06T08:25:07.313Z,15020.00
2022-10-06T08:26:07.969Z,31680.00
2022-10-06T08:27:07.192Z,14020.00
2022-10-06T08:28:09.422Z,28416.00
2022-10-06T08:29:08.064Z,28288.00
2022-10-06T08:30:07.650Z,28352.00
2022-10-06T08:31:09.854Z,28224.00
2022-10-06T08:32:09.052Z,28576.00
2022-10-06T08:33:09.228Z,29216.00
2022-10-06T08:34:12.064Z,29216.00
2022-10-06T08:35:08.065Z,28864.00
2022-10-06T08:36:11.749Z,29536.00
2022-10-06T08:37:19.958Z,19648.00
2022-10-06T08:38:11.823Z,34848.00
2022-10-06T08:39:10.993Z,33248.00
2022-10-06T08:40:11.157Z,15824.00
2022-10-06T08:41:10.565Z,30688.00
2022-10-06T08:42:11.976Z,29696.00
2022-10-06T08:43:12.280Z,29408.00
2022-10-06T08:44:12.406Z,28672.00
2022-10-06T08:45:12.573Z,28576.00
2022-10-06T08:46:12.740Z,28832.00
2022-10-06T08:47:11.419Z,28576.00
2022-10-06T08:48:13.662Z,28576.00
2022-10-06T08:49:13.857Z,29408.00
2022-10-06T08:50:12.390Z,30016.00
2022-10-06T08:51:14.488Z,30368.00
2022-10-06T08:52:12.924Z,31264.00
2022-10-06T08:53:16.293Z,32064.00
2022-10-06T08:54:15.356Z,32064.00
2022-10-06T08:55:13.791Z,32640.00
2022-10-06T08:56:15.973Z,33216.00
2022-10-06T08:57:16.304Z,28864.00
2022-10-06T08:58:16.385Z,29888.00
2022-10-06T08:59:16.573Z,27744.00
2022-10-06T09:00:19.487Z,27968.00
2022-10-06T09:01:18.475Z,29152.00
2022-10-06T09:02:15.826Z,30656.00
2022-10-06T09:03:16.900Z,32000.00
2022-10-06T09:04:18.274Z,34144.00
2022-10-06T09:05:16.587Z,34752.00
2022-10-06T09:06:18.784Z,33984.00
2022-10-06T09:07:17.094Z,34176.00
2022-10-06T09:08:17.333Z,35296.00
2022-10-06T09:09:19.513Z,36448.00
2022-10-06T09:10:18.083Z,36384.00
2022-10-06T09:11:20.029Z,36064.00
2022-10-06T09:12:18.466Z,36192.00
2022-10-06T09:13:21.748Z,35616.00
2022-10-06T09:14:19.050Z,36160.00
2022-10-06T09:15:20.105Z,36768.00
2022-10-06T09:16:19.605Z,33568.00
2022-10-06T09:17:21.716Z,36352.00
2022-10-06T09:18:20.154Z,36576.00
2022-10-06T09:19:20.413Z,38016.00
2022-10-06T09:20:20.707Z,40416.00
2022-10-06T09:21:24.353Z,40320.00
2022-10-06T09:22:21.210Z,39072.00
2022-10-06T09:23:23.378Z,39392.00
2022-10-06T09:24:21.693Z,45152.00
2022-10-06T09:25:23.845Z,47392.00
2022-10-06T09:26:24.036Z,49408.00
2022-10-06T09:27:22.489Z,49728.00
2022-10-06T09:28:22.771Z,49920.00
2022-10-06T09:29:22.982Z,25632.00
2022-10-06T09:30:26.140Z,19232.00
2022-10-06T09:31:24.949Z,19552.00
2022-10-06T09:32:25.649Z,41984.00
2022-10-06T09:33:24.084Z,41632.00
2022-10-06T09:34:24.333Z,43936.00
2022-10-06T09:35:27.493Z,43872.00
2022-10-06T09:36:24.814Z,48000.00
2022-10-06T09:37:26.988Z,46688.00
2022-10-06T09:38:25.299Z,44768.00
2022-10-06T09:39:25.538Z,44352.00
2022-10-06T09:40:26.661Z,43520.00
2022-10-06T09:41:27.063Z,43136.00
2022-10-06T09:42:26.375Z,43040.00
2022-10-06T09:43:26.615Z,44064.00
2022-10-06T09:44:26.860Z,44864.00
2022-10-06T09:45:30.522Z,20672.00
2022-10-06T09:46:27.344Z,7864.00
2022-10-06T09:47:30.972Z,7636.00
2022-10-06T09:48:31.168Z,9312.00
2022-10-06T09:49:28.108Z,28800.00
2022-10-06T09:50:31.815Z,47744.00
2022-10-06T09:51:29.603Z,46720.00
2022-10-06T09:52:30.827Z,47776.00
2022-10-06T09:53:35.489Z,48512.00
2022-10-06T09:54:31.449Z,46912.00
2022-10-06T09:55:30.756Z,44928.00
2022-10-06T09:56:31.995Z,44416.00
2022-10-06T09:57:32.185Z,45344.00
2022-10-06T09:58:30.611Z,47392.00
2022-10-06T09:59:30.857Z,49024.00
2022-10-06T10:00:34.034Z,47744.00
2022-10-06T10:01:33.303Z,47840.00
2022-10-06T10:02:33.514Z,48864.00
2022-10-06T10:03:32.904Z,48640.00
2022-10-06T10:04:33.259Z,45472.00
2022-10-06T10:05:36.011Z,48256.00
2022-10-06T10:06:32.839Z,49248.00
2022-10-06T10:07:35.022Z,49632.00
2022-10-06T10:09:33.545Z,49920.00
2022-10-06T10:10:37.199Z,49280.00
2022-10-06T10:11:34.949Z,49344.00
2022-10-06T10:12:35.788Z,49472.00
2022-10-06T10:13:34.491Z,50080.00
2022-10-06T10:14:37.623Z,49728.00
2022-10-06T10:15:38.323Z,49024.00
2022-10-06T10:16:36.308Z,48768.00
2022-10-06T10:17:38.415Z,49344.00
2022-10-06T10:18:36.815Z,49696.00
2022-10-06T10:19:36.999Z,50048.00
2022-10-06T10:20:39.871Z,51040.00
2022-10-06T10:21:38.622Z,54048.00
2022-10-06T10:22:38.806Z,34400.00
2022-10-06T10:23:38.990Z,63008.00
2022-10-06T10:24:38.502Z,63840.00
2022-10-06T10:25:38.772Z,57376.00
2022-10-06T10:26:40.006Z,50336.00
2022-10-06T10:27:38.339Z,52928.00
2022-10-06T10:28:40.523Z,54176.00
2022-10-06T10:29:38.824Z,52672.00
2022-10-06T10:30:40.037Z,54272.00
2022-10-06T10:31:40.465Z,53088.00
2022-10-06T10:32:41.521Z,50816.00
2022-10-06T10:33:49.672Z,52800.00
2022-10-06T10:34:41.281Z,51264.00
2022-10-06T10:35:43.465Z,52032.00
2022-10-06T10:36:40.902Z,51968.00
2022-10-06T10:37:41.143Z,52000.00
2022-10-06T10:38:44.837Z,54112.00
2022-10-06T10:39:41.925Z,53152.00
2022-10-06T10:40:41.989Z,53056.00
2022-10-06T10:41:42.232Z,51200.00
2022-10-06T10:42:43.423Z,53088.00
2022-10-06T10:43:42.827Z,56320.00
2022-10-06T10:44:42.948Z,19904.00
2022-10-06T10:45:43.194Z,43200.00
2022-10-06T10:46:43.534Z,22752.00
2022-10-06T10:47:44.652Z,21472.00
2022-10-06T10:48:46.039Z,21024.00
2022-10-06T10:49:46.112Z,20288.00
2022-10-06T10:50:46.245Z,57280.00
2022-10-06T10:51:46.426Z,60096.00
2022-10-06T10:52:47.105Z,25504.00
2022-10-06T10:53:46.563Z,22016.00
2022-10-06T10:54:47.803Z,17920.00
2022-10-06T10:55:47.988Z,17296.00
2022-10-06T10:56:48.170Z,16196.00
2022-10-06T10:57:48.345Z,39552.00
2022-10-06T10:58:50.061Z,50368.00
2022-10-06T10:59:48.801Z,45408.00
2022-10-06T11:00:49.561Z,47904.00
2022-10-06T11:01:48.743Z,47104.00
2022-10-06T11:02:49.889Z,48032.00
2022-10-06T11:03:51.080Z,47552.00
2022-10-06T11:04:48.640Z,50272.00
2022-10-06T11:05:50.854Z,47520.00
2022-10-06T11:06:49.146Z,26240.00
2022-10-06T11:07:49.409Z,55392.00
2022-10-06T11:08:49.636Z,56672.00
2022-10-06T11:09:49.881Z,35008.00
2022-10-06T11:10:52.075Z,46208.00
2022-10-06T11:11:52.433Z,60576.00
2022-10-06T11:12:50.678Z,56672.00
2022-10-06T11:13:50.973Z,54272.00
2022-10-06T11:14:51.219Z,55200.00
2022-10-06T11:15:53.495Z,53792.00
2022-10-06T11:16:53.600Z,53120.00
2022-10-06T11:17:52.042Z,52256.00
2022-10-06T11:18:52.282Z,51488.00
2022-10-06T11:19:52.519Z,52256.00
2022-10-06T11:20:54.675Z,52448.00
2022-10-06T11:21:54.864Z,53600.00
2022-10-06T11:22:55.090Z,54240.00
2022-10-06T11:23:53.648Z,54816.00
2022-10-06T11:24:53.926Z,53120.00
2022-10-06T11:25:54.140Z,52480.00
2022-10-06T11:26:54.381Z,53120.00
2022-10-06T11:27:56.619Z,53056.00
2022-10-06T11:28:56.718Z,53824.00
2022-10-06T11:29:55.321Z,52096.00
2022-10-06T11:30:57.342Z,52704.00
2022-10-06T11:31:57.680Z,51200.00
2022-10-06T11:32:56.087Z,52352.00
2022-10-06T11:33:59.734Z,49504.00
2022-10-06T11:36:13.857Z,47552.00
2022-10-06T11:37:13.682Z,49088.00
2022-10-06T11:38:12.983Z,51712.00
2022-10-06T11:39:15.167Z,52288.00
2022-10-06T11:40:13.494Z,53728.00
2022-10-06T11:41:17.188Z,54208.00
2022-10-06T11:42:15.038Z,55456.00
2022-10-06T11:43:14.335Z,53664.00
2022-10-06T11:44:16.522Z,53888.00
2022-10-06T11:45:14.841Z,53056.00
2022-10-06T11:46:16.126Z,54048.00
2022-10-06T11:47:17.373Z,55360.00
2022-10-06T11:48:15.670Z,53632.00
2022-10-06T11:49:15.909Z,54528.00
2022-10-06T11:50:18.071Z,52576.00
2022-10-06T11:51:17.428Z,52512.00
2022-10-06T11:52:18.652Z,50880.00
2022-10-06T11:53:16.959Z,52096.00
2022-10-06T11:54:17.198Z,53760.00
2022-10-06T11:55:19.401Z,54016.00
2022-10-06T11:56:18.743Z,57056.00
2022-10-06T11:57:19.074Z,53472.00
2022-10-06T11:59:21.147Z,54528.00
2022-10-06T12:00:18.976Z,53696.00
2022-10-06T12:01:20.186Z,56640.00
2022-10-06T12:02:19.554Z,54400.00
2022-10-06T12:03:21.715Z,56320.00
2022-10-06T12:04:24.386Z,54592.00
2022-10-06T12:05:54.900Z,52736.00
2022-10-06T12:06:23.168Z,53632.00
2022-10-06T12:07:20.981Z,51808.00
2022-10-06T12:08:23.178Z,54208.00
2022-10-06T12:09:22.341Z,52000.00
2022-10-06T12:10:21.779Z,52832.00
2022-10-06T12:11:25.447Z,54688.00
2022-10-06T12:12:22.275Z,53312.00
2022-10-06T12:17:05.612Z,56160.00
2022-10-06T12:17:25.618Z,55232.00
2022-10-06T12:18:26.800Z,58784.00
2022-10-06T12:19:26.015Z,56000.00
2022-10-06T12:20:25.380Z,55872.00
2022-10-06T12:21:27.767Z,55712.00
2022-10-06T12:22:25.957Z,54016.00
2022-10-06T12:23:26.376Z,52928.00
2022-10-06T12:24:27.560Z,50560.00
2022-10-06T12:25:26.951Z,47776.00
2022-10-06T12:26:27.287Z,47424.00
2022-10-06T12:27:26.599Z,46400.00
2022-10-06T12:28:28.809Z,46752.00
2022-10-06T12:29:27.108Z,45408.00
2022-10-06T12:30:29.381Z,45344.00
2022-10-06T12:31:28.611Z,45760.00
2022-10-06T12:32:27.871Z,45536.00
2022-10-06T12:33:30.059Z,46080.00
2022-10-06T12:34:28.370Z,44704.00
2022-10-06T12:35:28.609Z,43872.00
2022-10-06T12:36:33.305Z,42976.00
2022-10-06T12:37:29.151Z,42304.00